Time;durP1;ratioP1;P1;durP2;ratioP2;P2;SDS_P1;SDS_P2;PMS_P1;PMS_P2;Temp;Humidity;BMP_temperature;BMP_pressure;BME280_temperature;BME280_humidity;BME280_pressure;Samples;Min_cycle;Max_cycle;Signal;HPM_P1;HPM_P2
2021/12/25 00:00:55;;;;;;;0.27;0.27;;;-4.60;99.90;;;;;;5075897;28;20098;-74
2021/12/25 00:03:23;;;;;;;0.20;0.20;;;-4.60;99.90;;;;;;5075745;28;20044;-73
2021/12/25 00:05:52;;;;;;;0.10;0.10;;;-4.70;99.90;;;;;;5075095;28;20086;-73
2021/12/25 00:08:20;;;;;;;0.83;0.37;;;-4.70;99.90;;;;;;5075434;28;20083;-75
2021/12/25 00:10:47;;;;;;;0.63;0.50;;;-4.70;99.90;;;;;;5075526;28;20459;-75
2021/12/25 00:13:14;;;;;;;0.10;0.10;;;-4.70;99.90;;;;;;5075305;28;20056;-76
2021/12/25 00:15:42;;;;;;;0.20;0.20;;;-4.70;99.90;;;;;;5074865;28;20044;-77
2021/12/25 00:18:09;;;;;;;0.10;0.10;;;-4.80;99.90;;;;;;5075560;28;20049;-77
2021/12/25 00:20:36;;;;;;;1.60;1.20;;;-4.80;99.90;;;;;;5075382;28;20488;-74
2021/12/25 00:23:05;;;;;;;0.60;0.60;;;-4.90;99.90;;;;;;5075298;28;20044;-74
2021/12/25 00:25:36;;;;;;;2.20;0.77;;;-4.90;99.90;;;;;;5074807;28;20051;-73
2021/12/25 00:28:17;;;;;;;0.30;0.30;;;-5.00;99.90;;;;;;5075555;28;20045;-75
2021/12/25 00:30:58;;;;;;;0.43;0.43;;;-5.00;99.90;;;;;;5075195;28;20045;-74
2021/12/25 00:33:35;;;;;;;0.20;0.20;;;-5.00;99.90;;;;;;5075633;28;20057;-75
2021/12/25 00:36:02;;;;;;;0.10;0.10;;;-5.10;99.90;;;;;;5074760;28;20474;-75
2021/12/25 00:38:31;;;;;;;0.90;0.50;;;-5.20;99.90;;;;;;5075562;28;20040;-74
2021/12/25 00:40:59;;;;;;;0.20;0.20;;;-5.30;99.90;;;;;;5074978;28;20078;-74
2021/12/25 00:43:26;;;;;;;0.37;0.37;;;-5.30;99.90;;;;;;5075043;28;20475;-73
2021/12/25 00:45:52;;;;;;;0.10;0.10;;;-5.40;99.90;;;;;;5074165;28;20045;-74
2021/12/25 00:48:19;;;;;;;0.97;0.97;;;-5.40;99.90;;;;;;5074735;28;20067;-73
2021/12/25 00:50:45;;;;;;;1.07;0.97;;;-5.40;99.90;;;;;;5073432;28;20390;-75
2021/12/25 00:53:12;;;;;;;2.37;0.97;;;-5.40;99.90;;;;;;5074605;28;20098;-73
2021/12/25 00:55:39;;;;;;;0.10;0.10;;;-5.30;99.90;;;;;;5073769;28;20546;-73
2021/12/25 00:58:07;;;;;;;0.40;0.40;;;-5.30;99.90;;;;;;5074400;28;20106;-75
2021/12/25 01:00:33;;;;;;;0.20;0.20;;;-5.30;99.90;;;;;;5074294;28;20090;-73
2021/12/25 01:03:00;;;;;;;0.20;0.20;;;-5.30;99.90;;;;;;5074189;28;20044;-77
2021/12/25 01:05:27;;;;;;;0.10;0.10;;;-5.40;99.90;;;;;;5074147;28;20053;-76
2021/12/25 01:07:54;;;;;;;0.10;0.10;;;-5.30;99.90;;;;;;5074591;28;20048;-77
2021/12/25 01:10:21;;;;;;;0.17;0.17;;;-5.30;99.90;;;;;;5074694;28;20049;-74
2021/12/25 01:12:59;;;;;;;0.10;0.10;;;-5.20;99.90;;;;;;5074486;28;20052;-75
2021/12/25 01:15:36;;;;;;;0.10;0.10;;;-5.30;99.90;;;;;;5074275;28;20140;-76
2021/12/25 01:24:19;;;;;;;0.10;0.10;;;-5.40;99.90;;;;;;5037880;28;20127;-75
2021/12/25 01:27:01;;;;;;;0.37;0.37;;;-5.30;99.90;;;;;;5074337;28;20527;-76
2021/12/25 01:29:35;;;;;;;;;;;-5.50;99.90;;;;;;5074955;28;20055;-76
2021/12/25 01:32:36;;;;;;;0.10;0.10;;;-5.50;99.90;;;;;;5073806;28;19920;-75
2021/12/25 01:35:30;;;;;;;0.13;0.13;;;-5.50;99.90;;;;;;5073032;28;20049;-73
2021/12/25 01:38:18;;;;;;;1.10;0.93;;;-5.50;99.90;;;;;;5073995;28;20127;-73
2021/12/25 01:40:58;;;;;;;0.57;0.40;;;-5.50;99.90;;;;;;5074221;28;20049;-74
2021/12/25 01:48:55;;;;;;;0.20;0.20;;;-5.70;99.90;;;;;;5073768;28;20553;-76
2021/12/25 01:51:22;;;;;;;0.40;0.40;;;-5.80;99.90;;;;;;5073694;28;20048;-75
2021/12/25 01:53:49;;;;;;;0.10;0.10;;;-5.90;99.90;;;;;;5073706;28;20071;-76
2021/12/25 01:56:16;;;;;;;1.10;0.40;;;-6.00;99.90;;;;;;5073317;28;20125;-76
2021/12/25 01:58:43;;;;;;;1.07;0.97;;;-6.00;99.90;;;;;;5073607;28;20047;-76
2021/12/25 02:01:11;;;;;;;2.30;1.47;;;-6.00;99.90;;;;;;5073254;28;20175;-76
2021/12/25 02:03:38;;;;;;;3.37;1.60;;;-6.00;99.90;;;;;;5073696;28;20101;-76
2021/12/25 02:06:09;;;;;;;0.43;0.43;;;-5.90;99.90;;;;;;5073212;28;20102;-74
2021/12/25 02:08:36;;;;;;;3.53;0.73;;;-5.90;99.90;;;;;;5073753;28;20572;-74
2021/12/25 02:11:03;;;;;;;0.67;0.67;;;-5.90;99.90;;;;;;5073225;28;20044;-75
2021/12/25 02:13:30;;;;;;;0.20;0.20;;;-5.80;99.90;;;;;;5073319;28;20052;-73
2021/12/25 02:15:58;;;;;;;0.10;0.10;;;-5.80;99.90;;;;;;5073261;28;20045;-73
2021/12/25 02:18:30;;;;;;;0.30;0.30;;;-5.80;99.90;;;;;;5073638;28;20050;-73
2021/12/25 02:21:06;;;;;;;;;;;-5.80;99.90;;;;;;5073810;28;20140;-73
2021/12/25 02:23:34;;;;;;;0.20;0.20;;;-5.80;99.90;;;;;;5073807;28;19924;-72
2021/12/25 02:26:01;;;;;;;0.10;0.10;;;-5.90;99.90;;;;;;5072873;28;20461;-73
2021/12/25 02:28:29;;;;;;;0.10;0.10;;;-5.90;99.90;;;;;;5073029;28;20053;-75
2021/12/25 02:31:00;;;;;;;0.30;0.30;;;-5.90;99.90;;;;;;5072775;28;20493;-74
2021/12/25 02:33:28;;;;;;;0.93;0.93;;;-5.90;99.90;;;;;;5073285;28;20123;-75
2021/12/25 02:35:56;;;;;;;0.10;0.10;;;-6.00;99.90;;;;;;5072181;28;20045;-77
2021/12/25 02:38:25;;;;;;;0.20;0.20;;;-6.00;99.90;;;;;;5072595;28;20102;-76
2021/12/25 02:40:52;;;;;;;0.43;0.43;;;-6.00;99.90;;;;;;5073146;28;20048;-76
2021/12/25 02:43:19;;;;;;;0.40;0.40;;;-6.00;99.90;;;;;;5072882;28;20048;-74
2021/12/25 02:45:46;;;;;;;0.60;0.50;;;-6.10;99.90;;;;;;5072411;28;20044;-73
2021/12/25 02:48:16;;;;;;;2.30;0.70;;;-6.00;99.90;;;;;;5072864;28;20045;-74
2021/12/25 02:50:44;;;;;;;0.20;0.20;;;-6.20;99.90;;;;;;5072502;28;20134;-74
2021/12/25 02:53:12;;;;;;;0.30;0.30;;;-6.40;99.90;;;;;;5072620;28;20044;-74
2021/12/25 02:55:42;;;;;;;0.23;0.23;;;-6.50;99.90;;;;;;5072313;28;20041;-75
2021/12/25 02:58:09;;;;;;;0.20;0.20;;;-6.60;99.90;;;;;;5071418;28;20048;-76
2021/12/25 03:00:38;;;;;;;0.17;0.17;;;-6.60;99.90;;;;;;5072337;28;20049;-76
2021/12/25 03:03:06;;;;;;;0.27;0.27;;;-6.60;99.90;;;;;;5072260;28;20045;-77
2021/12/25 03:05:32;;;;;;;0.83;0.83;;;-6.50;99.90;;;;;;5071656;28;20127;-75
2021/12/25 03:07:59;;;;;;;0.20;0.20;;;-6.60;99.90;;;;;;5072216;28;20091;-76
2021/12/25 03:10:26;;;;;;;0.30;0.30;;;-6.70;99.90;;;;;;5072533;28;20079;-75
2021/12/25 03:13:05;;;;;;;0.10;0.10;;;-6.80;99.90;;;;;;5071625;28;20052;-74
2021/12/25 03:15:45;;;;;;;0.10;0.10;;;-6.90;99.90;;;;;;5072031;28;20072;-76
2021/12/25 03:18:12;;;;;;;0.27;0.27;;;-6.90;99.90;;;;;;5072063;28;20049;-75
2021/12/25 03:20:40;;;;;;;0.17;0.17;;;-6.80;99.90;;;;;;5072554;28;20090;-75
2021/12/25 03:23:06;;;;;;;0.40;0.40;;;-6.60;99.90;;;;;;5072448;28;20040;-76
2021/12/25 03:25:33;;;;;;;0.80;0.70;;;-6.60;99.90;;;;;;5072096;28;20041;-73
2021/12/25 03:28:01;;;;;;;0.13;0.13;;;-6.50;99.90;;;;;;5072329;28;20090;-74
2021/12/25 03:30:28;;;;;;;1.40;0.70;;;-6.50;99.90;;;;;;5072440;28;20048;-74
2021/12/25 03:32:55;;;;;;;0.27;0.27;;;-6.50;99.90;;;;;;5072050;28;20052;-72
2021/12/25 03:35:22;;;;;;;0.40;0.40;;;-6.50;99.90;;;;;;5071815;28;20079;-74
2021/12/25 03:37:48;;;;;;;0.73;0.57;;;-6.50;99.90;;;;;;5072216;28;20052;-75
2021/12/25 03:40:15;;;;;;;0.10;0.10;;;-6.50;99.90;;;;;;5071909;28;20492;-75
2021/12/25 03:42:43;;;;;;;0.10;0.10;;;-6.50;99.90;;;;;;5071971;28;20048;-77
2021/12/25 03:45:11;;;;;;;1.50;0.93;;;-6.50;99.90;;;;;;5071472;28;20123;-76
2021/12/25 03:47:39;;;;;;;0.10;0.10;;;-6.50;99.90;;;;;;5072310;28;20110;-75
2021/12/25 03:53:23;;;;;;;1.23;0.83;;;-6.70;99.90;;;;;;5071916;28;20415;-75
2021/12/25 03:58:34;;;;;;;0.10;0.10;;;-6.80;99.90;;;;;;5072080;28;20171;-73
2021/12/25 04:01:23;;;;;;;0.40;0.40;;;-6.70;99.90;;;;;;5071901;28;20044;-73
2021/12/25 04:04:04;;;;;;;0.70;0.70;;;-6.80;99.90;;;;;;5071917;28;20136;-74
2021/12/25 04:06:31;;;;;;;1.13;0.73;;;-6.70;99.90;;;;;;5071784;28;20510;-75
2021/12/25 04:08:58;;;;;;;1.47;1.00;;;-6.70;99.90;;;;;;5071943;28;20102;-73
2021/12/25 04:11:27;;;;;;;0.73;0.73;;;-6.60;99.90;;;;;;5071744;28;20087;-73
2021/12/25 04:13:54;;;;;;;0.40;0.20;;;-6.70;99.90;;;;;;5071736;28;20045;-73
2021/12/25 04:16:22;;;;;;;0.40;0.40;;;-6.70;99.90;;;;;;5071414;28;20056;-72
2021/12/25 04:18:49;;;;;;;0.10;0.10;;;-6.80;99.90;;;;;;5071682;28;20114;-74
2021/12/25 04:21:16;;;;;;;0.30;0.30;;;-6.80;99.90;;;;;;5071754;28;20478;-74
2021/12/25 04:23:44;;;;;;;0.40;0.40;;;-6.80;99.90;;;;;;5071866;28;20049;-75
2021/12/25 04:26:12;;;;;;;0.20;0.20;;;-6.80;99.90;;;;;;5074063;28;20459;-74
2021/12/25 04:28:44;;;;;;;0.40;0.40;;;-6.90;99.90;;;;;;5074962;28;20558;-74
2021/12/25 04:31:28;;;;;;;0.10;0.10;;;-7.00;99.90;;;;;;5074986;28;20071;-74
2021/12/25 04:48:00;;;;;;;0.30;0.30;;;-7.30;99.90;;;;;;5075081;28;20056;-77
2021/12/25 05:04:14;;;;;;;0.23;0.23;;;-7.60;99.90;;;;;;5074722;28;20091;-73
2021/12/25 05:06:42;;;;;;;0.33;0.33;;;-7.60;99.90;;;;;;5074740;28;20049;-74
2021/12/25 05:09:08;;;;;;;0.23;0.23;;;-7.70;99.90;;;;;;5074674;28;20111;-74
2021/12/25 05:11:35;;;;;;;0.63;0.63;;;-7.70;99.90;;;;;;5074703;28;20121;-74
2021/12/25 05:14:02;;;;;;;0.40;0.40;;;-7.70;99.90;;;;;;5074052;28;20121;-73
2021/12/25 05:16:28;;;;;;;1.10;0.60;;;-7.70;99.90;;;;;;5074549;28;20106;-74
2021/12/25 05:18:55;;;;;;;0.43;0.43;;;-7.60;99.90;;;;;;5074363;28;20561;-76
2021/12/25 05:21:22;;;;;;;0.30;0.30;;;-7.50;99.90;;;;;;5074664;28;20048;-74
2021/12/25 05:23:50;;;;;;;0.40;0.40;;;-7.40;99.90;;;;;;5074380;28;20123;-73
2021/12/25 05:26:17;;;;;;;0.20;0.20;;;-7.30;99.90;;;;;;5073804;28;20045;-74
2021/12/25 05:28:46;;;;;;;0.20;0.20;;;-7.20;99.90;;;;;;5074495;28;20079;-74
2021/12/25 05:31:15;;;;;;;0.43;0.43;;;-7.40;99.90;;;;;;5074477;28;20068;-75
2021/12/25 05:33:43;;;;;;;0.43;0.23;;;-7.50;99.90;;;;;;5074099;28;20044;-74
2021/12/25 05:36:10;;;;;;;0.20;0.20;;;-7.50;99.90;;;;;;5073008;28;20435;-74
2021/12/25 05:38:37;;;;;;;0.60;0.60;;;-7.40;99.90;;;;;;5074254;28;20481;-74
2021/12/25 05:41:05;;;;;;;0.47;0.47;;;-7.40;99.90;;;;;;5074410;28;20093;-73
2021/12/25 05:43:32;;;;;;;0.20;0.20;;;-7.40;99.90;;;;;;5074140;28;20048;-73
2021/12/25 05:45:59;;;;;;;0.17;0.17;;;-7.60;99.90;;;;;;5073222;28;20482;-74
2021/12/25 05:48:25;;;;;;;0.23;0.23;;;-7.70;99.90;;;;;;5073818;28;20586;-74
2021/12/25 05:50:52;;;;;;;0.83;0.83;;;-7.80;99.90;;;;;;5073530;28;20052;-74
2021/12/25 05:53:18;;;;;;;1.13;1.13;;;-7.60;99.90;;;;;;5073504;28;20049;-74
2021/12/25 05:55:46;;;;;;;3.50;0.43;;;-7.50;99.90;;;;;;5072755;28;20488;-73
2021/12/25 05:58:14;;;;;;;0.10;0.10;;;-7.50;99.90;;;;;;5073574;28;20048;-73
2021/12/25 06:00:40;;;;;;;0.37;0.37;;;-7.50;99.90;;;;;;5073511;28;20455;-74
2021/12/25 06:03:07;;;;;;;0.10;0.10;;;-7.50;99.90;;;;;;5073593;28;20048;-76
2021/12/25 06:05:34;;;;;;;0.70;0.60;;;-7.40;99.90;;;;;;5073172;28;20048;-73
2021/12/25 06:08:01;;;;;;;0.20;0.20;;;-7.40;99.90;;;;;;5073572;28;20049;-74
2021/12/25 06:10:27;;;;;;;0.30;0.30;;;-7.40;99.90;;;;;;5073715;28;20075;-74
2021/12/25 06:12:56;;;;;;;0.30;0.30;;;-7.40;99.90;;;;;;5073400;28;20098;-74
2021/12/25 06:15:24;;;;;;;0.77;0.77;;;-7.40;99.90;;;;;;5072899;28;20051;-74
2021/12/25 06:17:51;;;;;;;0.10;0.10;;;-7.40;99.90;;;;;;5073256;28;20040;-75
2021/12/25 06:20:18;;;;;;;0.63;0.63;;;-7.50;99.90;;;;;;5073384;28;20049;-74
2021/12/25 06:22:44;;;;;;;0.47;0.47;;;-7.60;99.90;;;;;;5073343;28;20044;-77
2021/12/25 06:25:12;;;;;;;0.40;0.40;;;-7.70;99.90;;;;;;5072454;28;20061;-76
2021/12/25 06:27:39;;;;;;;0.47;0.47;;;-7.80;99.90;;;;;;5073216;28;20044;-76
2021/12/25 06:30:08;;;;;;;5.43;0.77;;;-8.00;99.90;;;;;;5072890;28;20424;-75
2021/12/25 06:32:36;;;;;;;0.40;0.40;;;-8.10;99.90;;;;;;5073102;28;20048;-75
2021/12/25 06:35:03;;;;;;;3.90;0.97;;;-8.00;99.90;;;;;;5072936;28;20048;-75
2021/12/25 06:37:30;;;;;;;0.23;0.20;;;-7.90;99.90;;;;;;5073032;28;20118;-75
2021/12/25 06:39:57;;;;;;;0.50;0.50;;;-7.70;99.90;;;;;;5073357;28;20484;-76
2021/12/25 06:42:24;;;;;;;0.10;0.10;;;-7.60;99.90;;;;;;5073281;28;20428;-77
2021/12/25 06:44:50;;;;;;;0.93;0.93;;;-7.50;99.90;;;;;;5072775;28;20397;-76
2021/12/25 06:47:17;;;;;;;1.10;0.80;;;-7.40;99.90;;;;;;5073404;28;20040;-77
2021/12/25 06:49:45;;;;;;;0.30;0.30;;;-7.40;99.90;;;;;;5073157;28;20052;-77
2021/12/25 06:52:11;;;;;;;1.07;1.07;;;-7.40;99.90;;;;;;5072845;28;20044;-78
2021/12/25 06:54:38;;;;;;;0.40;0.40;;;-7.40;99.90;;;;;;5072106;28;20102;-76
2021/12/25 06:57:05;;;;;;;0.10;0.10;;;-7.60;99.90;;;;;;5072686;28;20117;-76
2021/12/25 06:59:32;;;;;;;0.93;0.70;;;-7.70;99.90;;;;;;5073090;28;20049;-76
2021/12/25 07:01:58;;;;;;;0.10;0.10;;;-7.70;99.90;;;;;;5072843;28;20102;-76
2021/12/25 07:04:25;;;;;;;2.23;1.37;;;-7.70;99.90;;;;;;5072100;28;20044;-73
2021/12/25 07:06:53;;;;;;;0.30;0.30;;;-7.80;99.90;;;;;;5072697;28;20045;-76
2021/12/25 07:09:20;;;;;;;0.80;0.80;;;-7.90;99.90;;;;;;5073455;28;20101;-74
2021/12/25 07:11:47;;;;;;;0.30;0.30;;;-7.90;99.90;;;;;;5072892;28;20052;-73
2021/12/25 07:14:14;;;;;;;0.30;0.30;;;-8.00;99.90;;;;;;5072350;28;20048;-74
2021/12/25 07:16:41;;;;;;;0.90;0.30;;;-7.90;99.90;;;;;;5072672;28;20052;-75
2021/12/25 07:19:10;;;;;;;0.67;0.63;;;-7.90;99.90;;;;;;5072802;28;20044;-75
2021/12/25 07:21:36;;;;;;;1.90;0.47;;;-7.80;99.90;;;;;;5072616;28;20052;-75
2021/12/25 07:24:05;;;;;;;1.13;0.60;;;-7.90;99.90;;;;;;5072212;28;20053;-75
2021/12/25 07:26:32;;;;;;;1.20;0.77;;;-7.80;99.90;;;;;;5072903;28;20045;-76
2021/12/25 07:28:58;;;;;;;0.50;0.50;;;-7.70;99.90;;;;;;5072713;28;20108;-74
2021/12/25 07:31:25;;;;;;;1.10;1.03;;;-7.60;99.90;;;;;;5072833;28;20044;-74
2021/12/25 07:33:52;;;;;;;1.30;1.10;;;-7.60;99.90;;;;;;5072927;28;20044;-74
2021/12/25 07:36:18;;;;;;;1.17;1.10;;;-7.50;99.90;;;;;;5072464;28;20048;-74
2021/12/25 07:38:45;;;;;;;2.10;1.93;;;-7.50;99.90;;;;;;5072800;28;20098;-74
2021/12/25 07:41:13;;;;;;;2.67;2.33;;;-7.40;99.90;;;;;;5073116;28;20045;-74
2021/12/25 07:43:40;;;;;;;2.03;1.87;;;-7.20;99.90;;;;;;5073132;28;20098;-74
2021/12/25 07:46:07;;;;;;;1.50;1.47;;;-7.10;99.90;;;;;;5072083;28;20109;-77
2021/12/25 07:48:34;;;;;;;6.33;3.27;;;-7.10;99.90;;;;;;5072088;28;20079;-74
2021/12/25 07:51:02;;;;;;;9.77;4.97;;;-7.10;99.90;;;;;;5071836;28;20056;-76
2021/12/25 07:53:30;;;;;;;4.47;4.23;;;-7.00;99.90;;;;;;5072570;28;20051;-75
2021/12/25 07:55:57;;;;;;;3.40;3.17;;;-6.80;99.90;;;;;;5071849;28;20420;-75
2021/12/25 07:58:25;;;;;;;1.40;1.30;;;-6.70;99.90;;;;;;5071374;28;20489;-73
2021/12/25 08:00:53;;;;;;;3.77;3.47;;;-6.70;99.90;;;;;;5076725;28;20045;-74
2021/12/25 08:03:20;;;;;;;11.37;10.30;;;-6.40;99.90;;;;;;5075733;28;20071;-74
2021/12/25 08:05:48;;;;;;;5.73;4.47;;;-6.20;99.90;;;;;;5075746;28;20049;-74
2021/12/25 08:08:15;;;;;;;2.87;2.57;;;-5.90;99.90;;;;;;5077264;28;20040;-77
2021/12/25 08:10:43;;;;;;;2.53;2.27;;;-5.60;99.90;;;;;;5075787;28;20147;-75
2021/12/25 08:13:13;;;;;;;2.13;1.93;;;-5.20;99.90;;;;;;5075602;28;20424;-74
2021/12/25 08:15:41;;;;;;;1.87;1.63;;;-4.80;99.90;;;;;;5075187;28;20090;-74
2021/12/25 08:18:08;;;;;;;2.33;2.23;;;-4.30;99.90;;;;;;5075125;28;20045;-74
2021/12/25 08:20:36;;;;;;;2.23;1.97;;;-3.70;99.90;;;;;;5076215;28;20079;-74
2021/12/25 08:23:03;;;;;;;1.37;1.27;;;-3.00;99.90;;;;;;5079739;28;20048;-74
2021/12/25 08:25:29;;;;;;;1.57;1.50;;;-2.30;99.90;;;;;;5075630;28;20090;-78
2021/12/25 08:27:56;;;;;;;1.67;1.30;;;-1.60;99.90;;;;;;5075286;28;20119;-73
2021/12/25 08:30:26;;;;;;;2.03;1.93;;;-1.10;99.90;;;;;;5075025;28;20044;-74
2021/12/25 08:32:55;;;;;;;6.97;4.83;;;-0.50;99.90;;;;;;5074778;28;20133;-73
2021/12/25 08:35:25;;;;;;;1.63;1.53;;;0.00;99.90;;;;;;5074483;28;20106;-79
2021/12/25 08:37:52;;;;;;;2.33;2.13;;;0.40;99.90;;;;;;5075442;28;20116;-72
2021/12/25 08:40:19;;;;;;;2.87;1.60;;;0.60;99.90;;;;;;5074933;28;20397;-72
2021/12/25 08:42:49;;;;;;;3.37;2.60;;;0.70;99.90;;;;;;5074891;28;20122;-72
2021/12/25 08:45:39;;;;;;;4.00;3.63;;;0.60;99.90;;;;;;5074063;28;20049;-72
2021/12/25 08:48:10;;;;;;;3.77;2.77;;;0.90;99.90;;;;;;5074740;28;20574;-74
2021/12/25 08:50:37;;;;;;;5.32;1.75;;;1.60;99.90;;;;;;5074515;28;20535;-72
2021/12/25 08:53:04;;;;;;;2.63;1.60;;;2.30;99.90;;;;;;5074494;28;20049;-74
2021/12/25 08:55:31;;;;;;;2.67;2.47;;;2.00;99.90;;;;;;5073935;28;20048;-74
2021/12/25 08:57:57;;;;;;;1.90;1.70;;;2.30;99.90;;;;;;5074501;28;20503;-73
2021/12/25 09:00:24;;;;;;;5.73;3.43;;;2.80;99.90;;;;;;5075120;28;20070;-74
2021/12/25 09:02:51;;;;;;;7.87;3.40;;;3.30;99.90;;;;;;5074795;28;20546;-76
2021/12/25 09:05:20;;;;;;;4.03;3.60;;;3.60;99.90;;;;;;5074910;28;20051;-74
2021/12/25 09:07:46;;;;;;;7.23;4.30;;;3.10;99.80;;;;;;5075034;28;20052;-75
2021/12/25 09:10:13;;;;;;;6.27;3.60;;;3.60;99.60;;;;;;5074094;28;20140;-73
2021/12/25 09:12:43;;;;;;;7.63;4.87;;;3.80;96.30;;;;;;5075398;28;20047;-75
2021/12/25 09:15:11;;;;;;;18.03;10.87;;;4.30;97.20;;;;;;5073891;28;20567;-74
2021/12/25 09:17:37;;;;;;;9.93;6.70;;;4.70;95.00;;;;;;5074194;28;20054;-74
2021/12/25 09:20:06;;;;;;;4.97;4.27;;;5.10;92.40;;;;;;5074907;28;20048;-76
2021/12/25 09:22:34;;;;;;;4.53;3.47;;;5.50;90.00;;;;;;5074564;28;20094;-75
2021/12/25 09:25:02;;;;;;;5.33;4.43;;;5.40;89.10;;;;;;5073541;28;20435;-74
2021/12/25 09:27:28;;;;;;;3.47;2.87;;;5.80;85.40;;;;;;5073884;28;20048;-73
2021/12/25 09:29:55;;;;;;;4.95;3.05;;;6.20;85.00;;;;;;5073975;28;20048;-72
2021/12/25 09:32:21;;;;;;;30.80;12.90;;;7.20;83.00;;;;;;5074101;28;20044;-75
2021/12/25 09:34:48;;;;;;;6.60;3.90;;;7.70;78.60;;;;;;5073513;28;20053;-71
2021/12/25 09:37:22;;;;;;;3.33;2.95;;;8.10;76.70;;;;;;5074035;28;20385;-78
2021/12/25 09:39:50;;;;;;;3.47;2.47;;;8.80;72.70;;;;;;5075231;28;20068;-76
2021/12/25 09:42:16;;;;;;;13.73;6.82;;;9.40;69.80;;;;;;5074351;28;20489;-73
2021/12/25 09:44:43;;;;;;;3.72;3.08;;;10.30;67.10;;;;;;5074337;28;20044;-74
2021/12/25 09:47:10;;;;;;;3.70;2.10;;;10.70;63.20;;;;;;5073732;28;20048;-75
2021/12/25 09:49:36;;;;;;;2.95;2.30;;;11.00;61.20;;;;;;5073528;28;20420;-75
2021/12/25 09:52:03;;;;;;;2.35;2.15;;;11.70;60.10;;;;;;5073671;28;20044;-74
2021/12/25 09:54:30;;;;;;;3.55;3.15;;;12.20;58.90;;;;;;5073075;28;20044;-72
2021/12/25 09:56:59;;;;;;;2.97;2.63;;;12.20;57.30;;;;;;5073807;28;20550;-75
2021/12/25 09:59:26;;;;;;;3.00;2.22;;;13.10;55.70;;;;;;5073448;28;20044;-74
2021/12/25 10:01:55;;;;;;;27.15;15.93;;;13.50;54.70;;;;;;5075172;28;20074;-75
2021/12/25 10:04:37;;;;;;;12.18;7.85;;;13.80;53.50;;;;;;5073047;28;20049;-73
2021/12/25 10:07:18;;;;;;;4.15;3.17;;;14.00;52.80;;;;;;5073359;28;20044;-75
2021/12/25 10:09:55;;;;;;;4.27;2.63;;;14.10;51.40;;;;;;5073106;28;20044;-72
2021/12/25 10:12:28;;;;;;;4.30;2.70;;;14.60;50.90;;;;;;5072918;28;20309;-72
2021/12/25 10:14:55;;;;;;;5.22;4.07;;;15.10;49.90;;;;;;5072206;28;20097;-72
2021/12/25 10:17:26;;;;;;;6.65;5.00;;;15.30;48.10;;;;;;5073043;28;20091;-73
2021/12/25 10:20:08;;;;;;;5.22;3.63;;;15.60;47.30;;;;;;5072774;28;20068;-74
2021/12/25 10:22:36;;;;;;;7.00;4.10;;;15.90;46.90;;;;;;5072366;28;20068;-73
2021/12/25 10:25:11;;;;;;;6.30;4.32;;;15.40;47.30;;;;;;5072016;28;20467;-73
2021/12/25 10:27:50;;;;;;;5.38;3.53;;;16.10;46.50;;;;;;5072746;28;20481;-72
2021/12/25 10:30:16;;;;;;;7.68;5.15;;;16.40;45.70;;;;;;5072423;28;20584;-72
2021/12/25 10:32:43;;;;;;;7.15;4.63;;;16.50;45.60;;;;;;5072525;28;20370;-73
2021/12/25 10:35:16;;;;;;;14.45;7.90;;;16.50;44.50;;;;;;5072026;28;20114;-75
2021/12/25 10:37:44;;;;;;;3.50;2.90;;;16.60;44.70;;;;;;5072496;28;20052;-73
2021/12/25 10:40:27;;;;;;;2.83;1.35;;;17.00;44.00;;;;;;5072775;28;20044;-75
2021/12/25 10:42:58;;;;;;;2.92;1.83;;;17.00;44.30;;;;;;5072888;28;20114;-74
2021/12/25 10:45:26;;;;;;;2.22;1.63;;;17.10;43.00;;;;;;5072019;28;20048;-75
2021/12/25 10:48:02;;;;;;;2.13;1.45;;;17.40;42.60;;;;;;5072450;28;20135;-71
2021/12/25 10:50:35;;;;;;;3.20;1.80;;;17.80;41.90;;;;;;5072431;28;20477;-71
2021/12/25 10:53:05;;;;;;;2.53;1.75;;;17.70;41.40;;;;;;5072564;28;20382;-72
2021/12/25 10:55:32;;;;;;;1.98;1.73;;;15.30;40.90;;;;;;5071800;28;20052;-71
2021/12/25 10:58:01;;;;;;;3.75;2.78;;;16.70;42.20;;;;;;5072366;28;20393;-76
2021/12/25 11:00:29;;;;;;;2.00;1.80;;;17.20;41.90;;;;;;5072209;28;20049;-75
2021/12/25 11:02:59;;;;;;;3.80;1.42;;;17.20;40.90;;;;;;5071948;28;20048;-74
2021/12/25 11:05:28;;;;;;;1.50;1.30;;;17.10;40.80;;;;;;5071922;28;20041;-74
2021/12/25 11:08:05;;;;;;;1.42;1.33;;;16.50;40.20;;;;;;5072533;28;20045;-73
2021/12/25 11:10:32;;;;;;;2.28;1.38;;;16.10;40.60;;;;;;5072145;28;20447;-74
2021/12/25 11:13:00;;;;;;;2.60;1.70;;;15.90;41.30;;;;;;5071993;28;20174;-76
2021/12/25 11:15:29;;;;;;;1.42;1.13;;;14.90;41.50;;;;;;5071402;28;20485;-74
2021/12/25 11:18:06;;;;;;;4.03;2.45;;;12.40;42.20;;;;;;5071860;28;20052;-75
2021/12/25 11:20:35;;;;;;;3.40;2.55;;;13.00;44.80;;;;;;5071602;28;20143;-75
2021/12/25 11:23:04;;;;;;;3.08;2.20;;;12.40;44.90;;;;;;5071452;28;20048;-74
2021/12/25 11:25:34;;;;;;;2.55;2.25;;;12.50;45.40;;;;;;5071137;28;20048;-75
2021/12/25 11:28:06;;;;;;;0.90;0.90;;;12.70;46.40;;;;;;5071891;28;20102;-72
2021/12/25 11:30:34;;;;;;;1.17;1.05;;;14.20;45.20;;;;;;5072504;28;20072;-72
2021/12/25 11:33:02;;;;;;;2.13;1.23;;;13.20;45.90;;;;;;5071644;28;20048;-72
2021/12/25 11:35:31;;;;;;;1.88;1.35;;;12.10;45.30;;;;;;5070943;28;20113;-72
2021/12/25 11:37:58;;;;;;;1.75;1.25;;;12.70;45.40;;;;;;5071913;28;20044;-74
2021/12/25 11:40:28;;;;;;;4.30;1.50;;;12.90;45.60;;;;;;5071709;28;20131;-73
2021/12/25 11:42:57;;;;;;;1.83;1.67;;;13.30;45.50;;;;;;5071987;28;20548;-73
2021/12/25 11:45:29;;;;;;;11.40;7.63;;;13.70;44.60;;;;;;5071111;28;20075;-72
2021/12/25 11:47:59;;;;;;;1.75;1.65;;;14.40;44.70;;;;;;5071801;28;20055;-73
2021/12/25 11:50:40;;;;;;;1.77;1.05;;;14.30;44.00;;;;;;5071788;28;20049;-72
2021/12/25 11:53:15;;;;;;;1.70;1.60;;;13.70;43.30;;;;;;5072113;28;20048;-73
2021/12/25 11:56:15;;;;;;;2.83;1.30;;;13.80;43.90;;;;;;5070963;28;20049;-72
2021/12/25 11:58:44;;;;;;;3.22;1.15;;;12.60;45.00;;;;;;5072784;28;20067;-71
2021/12/25 12:01:25;;;;;;;1.00;0.90;;;13.30;45.30;;;;;;5074629;28;20087;-73
2021/12/25 12:03:56;;;;;;;1.95;1.38;;;13.20;44.20;;;;;;5073681;28;20097;-73
2021/12/25 12:06:56;;;;;;;1.23;1.08;;;14.00;44.70;;;;;;5071355;28;20052;-73
2021/12/25 12:09:25;;;;;;;4.65;3.03;;;14.40;43.60;;;;;;5071343;28;20048;-72
2021/12/25 12:12:16;;;;;;;3.60;2.47;;;13.10;44.30;;;;;;5071702;28;20056;-74
2021/12/25 12:14:44;;;;;;;0.80;0.80;;;11.70;44.60;;;;;;5070928;28;20135;-72
2021/12/25 12:17:31;;;;;;;1.42;1.00;;;12.00;45.60;;;;;;5071457;28;20094;-74
2021/12/25 12:20:01;;;;;;;0.60;0.60;;;12.20;45.40;;;;;;5071609;28;20060;-73
2021/12/25 12:25:45;;;;;;;0.57;0.57;;;13.20;43.60;;;;;;5071007;28;20567;-74
2021/12/25 12:28:13;;;;;;;0.77;0.73;;;10.90;44.70;;;;;;5071264;28;20135;-74
2021/12/25 12:30:52;;;;;;;1.75;0.80;;;12.40;45.70;;;;;;5071571;28;20048;-75
2021/12/25 12:33:36;;;;;;;4.20;2.70;;;13.90;44.20;;;;;;5071536;28;20112;-75
2021/12/25 12:36:05;;;;;;;4.40;1.20;;;13.80;42.80;;;;;;5070716;28;20109;-75
2021/12/25 12:38:39;;;;;;;7.13;3.58;;;11.50;42.10;;;;;;5071000;28;20074;-75
2021/12/25 12:41:19;;;;;;;2.30;1.02;;;12.40;44.80;;;;;;5071569;28;20471;-72
2021/12/25 12:43:55;;;;;;;0.65;0.63;;;12.50;43.90;;;;;;5071351;28;20056;-72
2021/12/25 12:46:25;;;;;;;1.17;1.08;;;11.60;43.90;;;;;;5073925;28;20044;-73
2021/12/25 12:49:07;;;;;;;7.85;5.30;;;11.20;45.30;;;;;;5074753;28;20041;-74
2021/12/25 12:51:35;;;;;;;3.00;1.60;;;12.00;45.80;;;;;;5075082;28;20045;-74
2021/12/25 12:54:02;;;;;;;1.40;1.13;;;13.10;45.30;;;;;;5074241;28;20041;-74
2021/12/25 12:56:29;;;;;;;3.13;0.98;;;13.50;43.30;;;;;;5074710;28;20074;-75
2021/12/25 12:58:58;;;;;;;2.20;0.98;;;13.20;42.00;;;;;;5074534;28;20090;-74
2021/12/25 13:01:26;;;;;;;1.50;1.05;;;12.20;43.10;;;;;;5074583;28;20044;-75
2021/12/25 13:03:59;;;;;;;2.67;1.55;;;12.00;43.40;;;;;;5074389;28;20056;-76
2021/12/25 13:06:28;;;;;;;7.38;4.50;;;10.80;46.10;;;;;;5074786;28;20048;-73
2021/12/25 13:08:55;;;;;;;2.05;1.95;;;9.40;47.60;;;;;;5074270;28;20055;-75
2021/12/25 13:11:26;;;;;;;3.15;1.50;;;10.90;49.00;;;;;;5074502;28;20044;-74
2021/12/25 13:13:57;;;;;;;1.60;1.50;;;11.30;47.70;;;;;;5074420;28;20420;-74
2021/12/25 13:16:28;;;;;;;2.63;1.63;;;12.00;47.20;;;;;;5074942;28;20171;-74
2021/12/25 13:18:57;;;;;;;4.25;1.42;;;11.80;46.30;;;;;;5074699;28;20048;-73
2021/12/25 13:21:26;;;;;;;2.67;1.73;;;9.90;47.10;;;;;;5074401;28;20448;-72
2021/12/25 13:23:57;;;;;;;3.00;2.00;;;10.20;49.10;;;;;;5074109;28;20451;-72
2021/12/25 13:26:31;;;;;;;2.95;1.48;;;9.70;48.10;;;;;;5074195;28;20483;-74
2021/12/25 13:28:57;;;;;;;2.25;1.35;;;9.20;50.30;;;;;;5074074;28;20500;-73
2021/12/25 13:31:26;;;;;;;2.15;1.45;;;10.40;50.50;;;;;;5073861;28;20102;-71
2021/12/25 13:33:55;;;;;;;1.90;1.45;;;9.90;49.10;;;;;;5074011;28;20048;-72
2021/12/25 13:36:24;;;;;;;1.92;1.40;;;9.30;50.30;;;;;;5073432;28;20106;-73
2021/12/25 13:38:55;;;;;;;2.45;1.60;;;8.30;51.50;;;;;;5073656;28;20049;-73
2021/12/25 13:41:33;;;;;;;2.38;2.10;;;8.10;52.50;;;;;;5073852;28;20048;-73
2021/12/25 13:44:13;;;;;;;6.03;3.72;;;5.40;53.20;;;;;;5073242;28;20048;-72
2021/12/25 13:46:44;;;;;;;6.50;1.85;;;4.90;56.30;;;;;;5073661;28;20041;-72
2021/12/25 13:49:26;;;;;;;12.10;7.85;;;4.00;58.40;;;;;;5073709;28;20052;-72